sensor_id;sensor_type;location;lat;lon;timestamp;noise_LAeq;noise_LA_min;noise_LA_max;noise_LA01;noise_LA95
69620;Laerm;57654;51.434;5.984;2023-04-24T00:00:06;33.91;31.88;37.68;;
69620;Laerm;57654;51.434;5.984;2023-04-24T00:00:19;35.18;33.32;38.68;;
69620;Laerm;57654;51.434;5.984;2023-04-24T00:00:29;36.43;34.44;39.80;;
69620;Laerm;57654;51.434;5.984;2023-04-24T00:00:40;35.50;32.87;39.66;;
69620;Laerm;57654;51.434;5.984;2023-04-24T00:00:50;33.35;31.42;37.91;;
69620;Laerm;57654;51.434;5.984;2023-04-24T00:01:01;33.40;31.78;36.69;;
69620;Laerm;57654;51.434;5.984;2023-04-24T00:01:11;33.19;31.22;38.24;;
69620;Laerm;57654;51.434;5.984;2023-04-24T00:01:22;33.68;31.39;41.04;;
69620;Laerm;57654;51.434;5.984;2023-04-24T00:01:33;33.93;32.12;38.77;;
69620;Laerm;57654;51.434;5.984;2023-04-24T00:01:44;33.83;31.52;41.24;;
69620;Laerm;57654;51.434;5.984;2023-04-24T00:01:54;34.60;32.18;40.06;;
69620;Laerm;57654;51.434;5.984;2023-04-24T00:02:05;44.01;35.06;49.81;;
69620;Laerm;57654;51.434;5.984;2023-04-24T00:02:16;48.08;44.45;51.45;;
69620;Laerm;57654;51.434;5.984;2023-04-24T00:02:27;41.24;32.49;47.12;;
69620;Laerm;57654;51.434;5.984;2023-04-24T00:02:37;34.04;31.44;37.71;;
69620;Laerm;57654;51.434;5.984;2023-04-24T00:02:50;34.71;32.56;39.29;;
69620;Laerm;57654;51.434;5.984;2023-04-24T00:03:00;34.42;32.47;37.71;;
69620;Laerm;57654;51.434;5.984;2023-04-24T00:03:11;35.93;33.31;38.43;;
69620;Laerm;57654;51.434;5.984;2023-04-24T00:03:23;37.61;35.77;39.85;;
69620;Laerm;57654;51.434;5.984;2023-04-24T00:03:33;36.52;34.49;39.76;;
69620;Laerm;57654;51.434;5.984;2023-04-24T00:03:43;37.89;35.48;41.18;;
69620;Laerm;57654;51.434;5.984;2023-04-24T00:03:53;37.00;35.41;40.29;;
69620;Laerm;57654;51.434;5.984;2023-04-24T00:04:04;38.02;35.90;40.06;;
69620;Laerm;57654;51.434;5.984;2023-04-24T00:04:14;37.50;35.09;41.32;;
69620;Laerm;57654;51.434;5.984;2023-04-24T00:04:26;36.05;33.52;40.93;;
69620;Laerm;57654;51.434;5.984;2023-04-24T00:04:37;35.65;33.54;38.78;;
69620;Laerm;57654;51.434;5.984;2023-04-24T00:04:50;35.25;33.44;45.44;;
69620;Laerm;57654;51.434;5.984;2023-04-24T00:05:01;35.14;33.73;37.05;;
69620;Laerm;57654;51.434;5.984;2023-04-24T00:05:15;35.44;33.64;38.98;;
69620;Laerm;57654;51.434;5.984;2023-04-24T00:05:27;34.38;32.65;38.30;;
69620;Laerm;57654;51.434;5.984;2023-04-24T00:05:37;33.65;31.20;37.08;;
69620;Laerm;57654;51.434;5.984;2023-04-24T00:05:50;33.41;31.25;37.46;;
69620;Laerm;57654;51.434;5.984;2023-04-24T00:06:01;33.77;31.81;37.80;;
69620;Laerm;57654;51.434;5.984;2023-04-24T00:06:12;35.93;33.12;40.25;;
69620;Laerm;57654;51.434;5.984;2023-04-24T00:06:22;36.74;34.71;39.94;;
69620;Laerm;57654;51.434;5.984;2023-04-24T00:06:33;36.20;34.26;48.08;;
69620;Laerm;57654;51.434;5.984;2023-04-24T00:06:43;35.04;33.19;39.15;;
69620;Laerm;57654;51.434;5.984;2023-04-24T00:06:54;34.67;33.18;37.21;;
69620;Laerm;57654;51.434;5.984;2023-04-24T00:07:06;35.98;33.49;38.36;;
69620;Laerm;57654;51.434;5.984;2023-04-24T00:07:17;35.16;33.31;40.31;;
69620;Laerm;57654;51.434;5.984;2023-04-24T00:07:27;37.05;34.12;39.04;;
69620;Laerm;57654;51.434;5.984;2023-04-24T00:07:37;35.29;33.66;39.00;;
69620;Laerm;57654;51.434;5.984;2023-04-24T00:07:47;35.83;34.08;44.07;;
69620;Laerm;57654;51.434;5.984;2023-04-24T00:07:58;36.65;34.96;39.62;;
69620;Laerm;57654;51.434;5.984;2023-04-24T00:08:08;36.42;34.35;41.82;;
69620;Laerm;57654;51.434;5.984;2023-04-24T00:08:18;35.86;34.41;39.46;;
69620;Laerm;57654;51.434;5.984;2023-04-24T00:08:28;35.94;34.26;38.22;;
69620;Laerm;57654;51.434;5.984;2023-04-24T00:08:39;35.13;33.53;38.81;;
69620;Laerm;57654;51.434;5.984;2023-04-24T00:08:49;34.30;32.03;41.05;;
69620;Laerm;57654;51.434;5.984;2023-04-24T00:09:00;33.40;31.64;37.16;;
69620;Laerm;57654;51.434;5.984;2023-04-24T00:09:10;32.83;31.10;35.67;;
69620;Laerm;57654;51.434;5.984;2023-04-24T00:09:21;32.86;31.32;36.32;;
69620;Laerm;57654;51.434;5.984;2023-04-24T00:09:31;33.09;31.28;36.98;;
69620;Laerm;57654;51.434;5.984;2023-04-24T00:09:41;33.34;31.37;37.22;;
69620;Laerm;57654;51.434;5.984;2023-04-24T00:09:51;33.07;31.06;36.59;;
69620;Laerm;57654;51.434;5.984;2023-04-24T00:10:02;33.27;31.16;36.58;;
69620;Laerm;57654;51.434;5.984;2023-04-24T00:10:12;33.86;31.34;37.98;;
69620;Laerm;57654;51.434;5.984;2023-04-24T00:10:22;33.76;31.93;38.77;;
69620;Laerm;57654;51.434;5.984;2023-04-24T00:10:33;34.87;32.82;38.60;;
69620;Laerm;57654;51.434;5.984;2023-04-24T00:10:43;36.02;33.18;38.93;;
69620;Laerm;57654;51.434;5.984;2023-04-24T00:10:53;37.00;34.68;39.76;;
69620;Laerm;57654;51.434;5.984;2023-04-24T00:11:04;35.78;33.56;38.20;;
69620;Laerm;57654;51.434;5.984;2023-04-24T00:11:14;34.90;33.25;37.39;;
69620;Laerm;57654;51.434;5.984;2023-04-24T00:11:24;34.86;33.17;37.66;;
69620;Laerm;57654;51.434;5.984;2023-04-24T00:11:35;34.88;33.04;38.68;;
69620;Laerm;57654;51.434;5.984;2023-04-24T00:11:45;34.55;32.78;39.25;;
69620;Laerm;57654;51.434;5.984;2023-04-24T00:11:55;33.94;32.21;39.51;;
69620;Laerm;57654;51.434;5.984;2023-04-24T00:12:06;34.91;32.75;50.62;;
69620;Laerm;57654;51.434;5.984;2023-04-24T00:12:16;33.96;32.15;39.89;;
69620;Laerm;57654;51.434;5.984;2023-04-24T00:12:27;34.24;32.29;38.72;;
69620;Laerm;57654;51.434;5.984;2023-04-24T00:12:37;34.49;32.43;38.50;;
69620;Laerm;57654;51.434;5.984;2023-04-24T00:12:48;34.40;32.26;38.27;;
69620;Laerm;57654;51.434;5.984;2023-04-24T00:12:58;36.14;33.34;39.32;;
69620;Laerm;57654;51.434;5.984;2023-04-24T00:13:08;36.59;34.79;39.16;;
69620;Laerm;57654;51.434;5.984;2023-04-24T00:13:18;35.90;34.44;38.40;;
69620;Laerm;57654;51.434;5.984;2023-04-24T00:13:29;37.09;34.77;39.87;;
69620;Laerm;57654;51.434;5.984;2023-04-24T00:13:39;36.89;34.26;41.07;;
69620;Laerm;57654;51.434;5.984;2023-04-24T00:13:49;35.97;34.00;41.45;;
69620;Laerm;57654;51.434;5.984;2023-04-24T00:14:00;36.22;33.33;39.64;;
69620;Laerm;57654;51.434;5.984;2023-04-24T00:14:10;36.02;33.76;38.68;;
69620;Laerm;57654;51.434;5.984;2023-04-24T00:14:20;37.21;35.40;40.62;;
69620;Laerm;57654;51.434;5.984;2023-04-24T00:14:31;37.04;35.24;40.27;;
69620;Laerm;57654;51.434;5.984;2023-04-24T00:14:41;35.50;33.63;41.33;;
69620;Laerm;57654;51.434;5.984;2023-04-24T00:14:52;35.93;33.67;38.71;;
69620;Laerm;57654;51.434;5.984;2023-04-24T00:15:02;37.81;35.69;40.67;;
69620;Laerm;57654;51.434;5.984;2023-04-24T00:15:12;36.01;33.65;38.79;;
69620;Laerm;57654;51.434;5.984;2023-04-24T00:15:23;34.27;32.85;36.68;;
69620;Laerm;57654;51.434;5.984;2023-04-24T00:15:33;34.07;32.35;37.59;;
69620;Laerm;57654;51.434;5.984;2023-04-24T00:15:43;35.56;32.85;38.79;;
69620;Laerm;57654;51.434;5.984;2023-04-24T00:15:54;36.64;34.23;38.93;;
69620;Laerm;57654;51.434;5.984;2023-04-24T00:16:04;38.09;36.08;40.56;;
69620;Laerm;57654;51.434;5.984;2023-04-24T00:16:15;38.72;36.70;40.07;;
69620;Laerm;57654;51.434;5.984;2023-04-24T00:16:25;36.45;34.01;40.30;;
69620;Laerm;57654;51.434;5.984;2023-04-24T00:16:36;35.08;33.55;37.76;;
69620;Laerm;57654;51.434;5.984;2023-04-24T00:16:46;34.71;32.99;38.60;;
69620;Laerm;57654;51.434;5.984;2023-04-24T00:16:56;37.27;34.85;39.78;;
69620;Laerm;57654;51.434;5.984;2023-04-24T00:17:06;37.13;33.94;40.58;;
69620;Laerm;57654;51.434;5.984;2023-04-24T00:17:17;36.17;33.92;39.35;;
69620;Laerm;57654;51.434;5.984;2023-04-24T00:17:29;34.59;32.57;38.73;;
69620;Laerm;57654;51.434;5.984;2023-04-24T00:17:40;35.04;32.35;37.12;;
69620;Laerm;57654;51.434;5.984;2023-04-24T00:17:50;36.74;34.80;40.31;;
69620;Laerm;57654;51.434;5.984;2023-04-24T00:18:01;35.30;33.21;38.75;;
69620;Laerm;57654;51.434;5.984;2023-04-24T00:18:12;34.84;33.09;37.18;;
69620;Laerm;57654;51.434;5.984;2023-04-24T00:18:22;33.90;31.54;36.82;;
69620;Laerm;57654;51.434;5.984;2023-04-24T00:18:33;33.94;32.17;37.86;;
69620;Laerm;57654;51.434;5.984;2023-04-24T00:18:43;33.51;31.77;38.74;;
69620;Laerm;57654;51.434;5.984;2023-04-24T00:18:54;33.21;31.35;36.91;;
69620;Laerm;57654;51.434;5.984;2023-04-24T00:19:05;33.17;31.07;36.76;;
69620;Laerm;57654;51.434;5.984;2023-04-24T00:19:16;33.38;31.92;37.69;;
69620;Laerm;57654;51.434;5.984;2023-04-24T00:19:26;33.04;31.25;37.04;;
69620;Laerm;57654;51.434;5.984;2023-04-24T00:19:37;33.08;31.17;37.52;;
69620;Laerm;57654;51.434;5.984;2023-04-24T00:19:47;33.05;31.24;42.11;;
69620;Laerm;57654;51.434;5.984;2023-04-24T00:19:57;32.45;30.92;35.34;;
69620;Laerm;57654;51.434;5.984;2023-04-24T00:20:14;32.41;30.67;38.17;;
69620;Laerm;57654;51.434;5.984;2023-04-24T00:20:24;32.97;31.13;37.21;;
69620;Laerm;57654;51.434;5.984;2023-04-24T00:20:35;33.44;31.52;40.40;;
69620;Laerm;57654;51.434;5.984;2023-04-24T00:20:45;33.51;31.86;38.12;;
69620;Laerm;57654;51.434;5.984;2023-04-24T00:20:56;34.18;32.37;40.19;;
69620;Laerm;57654;51.434;5.984;2023-04-24T00:21:06;33.35;31.65;36.64;;
69620;Laerm;57654;51.434;5.984;2023-04-24T00:21:17;32.72;31.04;36.26;;
69620;Laerm;57654;51.434;5.984;2023-04-24T00:21:27;33.57;31.27;38.89;;
69620;Laerm;57654;51.434;5.984;2023-04-24T00:21:38;34.64;32.90;38.35;;
69620;Laerm;57654;51.434;5.984;2023-04-24T00:21:48;33.92;32.15;40.31;;
69620;Laerm;57654;51.434;5.984;2023-04-24T00:22:01;34.91;32.83;39.99;;
69620;Laerm;57654;51.434;5.984;2023-04-24T00:22:12;34.40;32.78;37.12;;
69620;Laerm;57654;51.434;5.984;2023-04-24T00:22:26;33.62;31.76;37.78;;
69620;Laerm;57654;51.434;5.984;2023-04-24T00:22:36;34.17;31.79;38.53;;
69620;Laerm;57654;51.434;5.984;2023-04-24T00:22:46;34.16;32.18;41.16;;
69620;Laerm;57654;51.434;5.984;2023-04-24T00:22:56;35.07;33.12;41.25;;
69620;Laerm;57654;51.434;5.984;2023-04-24T00:23:07;33.95;32.22;39.02;;
69620;Laerm;57654;51.434;5.984;2023-04-24T00:23:17;34.90;32.87;39.86;;
69620;Laerm;57654;51.434;5.984;2023-04-24T00:23:27;35.04;32.87;40.56;;
69620;Laerm;57654;51.434;5.984;2023-04-24T00:23:37;34.72;32.99;38.74;;
69620;Laerm;57654;51.434;5.984;2023-04-24T00:23:47;35.85;34.10;38.03;;
69620;Laerm;57654;51.434;5.984;2023-04-24T00:23:58;36.72;34.13;38.37;;
69620;Laerm;57654;51.434;5.984;2023-04-24T00:24:08;35.76;33.09;38.79;;
69620;Laerm;57654;51.434;5.984;2023-04-24T00:24:19;33.88;32.02;38.02;;
69620;Laerm;57654;51.434;5.984;2023-04-24T00:24:29;33.65;31.34;38.70;;
69620;Laerm;57654;51.434;5.984;2023-04-24T00:24:40;33.04;31.46;36.92;;
69620;Laerm;57654;51.434;5.984;2023-04-24T00:24:50;32.71;30.78;37.21;;
69620;Laerm;57654;51.434;5.984;2023-04-24T00:25:01;32.84;30.81;38.68;;
69620;Laerm;57654;51.434;5.984;2023-04-24T00:25:11;33.50;31.74;36.75;;
69620;Laerm;57654;51.434;5.984;2023-04-24T00:25:21;33.36;31.05;40.26;;
69620;Laerm;57654;51.434;5.984;2023-04-24T00:25:31;33.02;30.96;41.72;;
69620;Laerm;57654;51.434;5.984;2023-04-24T00:25:42;32.78;31.02;38.04;;
69620;Laerm;57654;51.434;5.984;2023-04-24T00:25:52;33.20;31.39;37.02;;
69620;Laerm;57654;51.434;5.984;2023-04-24T00:26:02;33.18;31.31;37.91;;
69620;Laerm;57654;51.434;5.984;2023-04-24T00:26:12;33.03;30.86;37.53;;
69620;Laerm;57654;51.434;5.984;2023-04-24T00:26:23;33.35;31.64;36.67;;
69620;Laerm;57654;51.434;5.984;2023-04-24T00:26:33;33.81;32.13;38.59;;
69620;Laerm;57654;51.434;5.984;2023-04-24T00:26:43;33.43;31.83;36.78;;
69620;Laerm;57654;51.434;5.984;2023-04-24T00:26:54;32.94;30.91;37.29;;
69620;Laerm;57654;51.434;5.984;2023-04-24T00:27:04;32.95;30.76;40.14;;
69620;Laerm;57654;51.434;5.984;2023-04-24T00:27:14;32.34;30.27;37.49;;
69620;Laerm;57654;51.434;5.984;2023-04-24T00:27:24;31.99;29.82;36.92;;
69620;Laerm;57654;51.434;5.984;2023-04-24T00:27:35;32.42;30.25;38.36;;
69620;Laerm;57654;51.434;5.984;2023-04-24T00:27:47;32.46;30.23;39.45;;
69620;Laerm;57654;51.434;5.984;2023-04-24T00:27:57;32.51;30.60;36.40;;
69620;Laerm;57654;51.434;5.984;2023-04-24T00:28:07;32.56;30.43;37.34;;
69620;Laerm;57654;51.434;5.984;2023-04-24T00:28:17;32.27;30.69;35.39;;
69620;Laerm;57654;51.434;5.984;2023-04-24T00:28:28;32.47;30.77;37.51;;
69620;Laerm;57654;51.434;5.984;2023-04-24T00:28:38;32.99;30.88;38.70;;
69620;Laerm;57654;51.434;5.984;2023-04-24T00:28:48;33.13;30.97;40.62;;
69620;Laerm;57654;51.434;5.984;2023-04-24T00:28:58;32.77;30.67;36.59;;
69620;Laerm;57654;51.434;5.984;2023-04-24T00:29:09;32.41;30.47;35.13;;
69620;Laerm;57654;51.434;5.984;2023-04-24T00:29:19;32.28;30.32;35.03;;
69620;Laerm;57654;51.434;5.984;2023-04-24T00:29:29;32.75;31.09;37.77;;
69620;Laerm;57654;51.434;5.984;2023-04-24T00:29:39;32.55;30.67;37.65;;
69620;Laerm;57654;51.434;5.984;2023-04-24T00:29:50;32.23;30.34;37.52;;
69620;Laerm;57654;51.434;5.984;2023-04-24T00:30:00;32.34;30.35;41.03;;
69620;Laerm;57654;51.434;5.984;2023-04-24T00:30:10;31.97;30.40;35.40;;
69620;Laerm;57654;51.434;5.984;2023-04-24T00:30:20;32.54;30.01;36.10;;
69620;Laerm;57654;51.434;5.984;2023-04-24T00:30:31;33.50;31.57;35.86;;
69620;Laerm;57654;51.434;5.984;2023-04-24T00:30:41;35.24;33.34;38.11;;
69620;Laerm;57654;51.434;5.984;2023-04-24T00:30:51;34.42;32.50;38.89;;
69620;Laerm;57654;51.434;5.984;2023-04-24T00:31:02;33.58;31.76;37.06;;
69620;Laerm;57654;51.434;5.984;2023-04-24T00:31:12;33.39;31.46;36.78;;
69620;Laerm;57654;51.434;5.984;2023-04-24T00:31:22;33.07;30.95;41.91;;
69620;Laerm;57654;51.434;5.984;2023-04-24T00:31:32;32.95;30.82;38.08;;
69620;Laerm;57654;51.434;5.984;2023-04-24T00:31:44;32.77;30.68;40.68;;
69620;Laerm;57654;51.434;5.984;2023-04-24T00:31:55;33.30;31.40;37.27;;
69620;Laerm;57654;51.434;5.984;2023-04-24T00:32:05;34.21;32.42;37.56;;
69620;Laerm;57654;51.434;5.984;2023-04-24T00:32:15;34.31;32.59;37.20;;
69620;Laerm;57654;51.434;5.984;2023-04-24T00:32:26;34.34;32.67;41.30;;
69620;Laerm;57654;51.434;5.984;2023-04-24T00:32:36;35.98;33.77;40.62;;
69620;Laerm;57654;51.434;5.984;2023-04-24T00:32:46;37.85;36.23;43.47;;
69620;Laerm;57654;51.434;5.984;2023-04-24T00:32:57;36.84;34.66;40.77;;
69620;Laerm;57654;51.434;5.984;2023-04-24T00:33:07;37.77;35.56;40.52;;
69620;Laerm;57654;51.434;5.984;2023-04-24T00:33:18;37.66;35.44;39.87;;
69620;Laerm;57654;51.434;5.984;2023-04-24T00:33:28;39.97;37.10;42.34;;
69620;Laerm;57654;51.434;5.984;2023-04-24T00:33:38;42.35;40.64;43.73;;
69620;Laerm;57654;51.434;5.984;2023-04-24T00:33:48;40.52;38.18;43.11;;
69620;Laerm;57654;51.434;5.984;2023-04-24T00:33:58;38.62;36.15;44.21;;
69620;Laerm;57654;51.434;5.984;2023-04-24T00:34:09;38.09;36.78;40.33;;
69620;Laerm;57654;51.434;5.984;2023-04-24T00:34:20;36.98;34.57;39.77;;
69620;Laerm;57654;51.434;5.984;2023-04-24T00:34:30;37.47;34.61;41.92;;
69620;Laerm;57654;51.434;5.984;2023-04-24T00:34:42;37.09;35.37;40.65;;
69620;Laerm;57654;51.434;5.984;2023-04-24T00:34:52;38.07;36.51;41.49;;
69620;Laerm;57654;51.434;5.984;2023-04-24T00:35:02;36.44;34.35;39.49;;
69620;Laerm;57654;51.434;5.984;2023-04-24T00:35:13;37.33;35.59;40.43;;
69620;Laerm;57654;51.434;5.984;2023-04-24T00:35:24;37.53;35.61;41.00;;
69620;Laerm;57654;51.434;5.984;2023-04-24T00:35:34;37.14;35.46;40.10;;
69620;Laerm;57654;51.434;5.984;2023-04-24T00:35:45;36.45;34.75;39.17;;
69620;Laerm;57654;51.434;5.984;2023-04-24T00:35:55;35.45;34.01;38.61;;
69620;Laerm;57654;51.434;5.984;2023-04-24T00:36:05;35.10;33.69;39.14;;
69620;Laerm;57654;51.434;5.984;2023-04-24T00:36:15;34.66;33.04;36.77;;
69620;Laerm;57654;51.434;5.984;2023-04-24T00:36:26;34.28;32.54;36.84;;
69620;Laerm;57654;51.434;5.984;2023-04-24T00:36:37;34.06;32.27;37.67;;
69620;Laerm;57654;51.434;5.984;2023-04-24T00:36:47;34.15;31.96;38.75;;
69620;Laerm;57654;51.434;5.984;2023-04-24T00:36:59;35.70;33.51;38.37;;
69620;Laerm;57654;51.434;5.984;2023-04-24T00:37:10;37.26;35.30;41.21;;
69620;Laerm;57654;51.434;5.984;2023-04-24T00:37:21;38.53;35.96;40.81;;
69620;Laerm;57654;51.434;5.984;2023-04-24T00:37:31;37.41;35.67;39.42;;
69620;Laerm;57654;51.434;5.984;2023-04-24T00:37:42;35.63;33.05;38.04;;
69620;Laerm;57654;51.434;5.984;2023-04-24T00:37:52;36.39;33.63;39.46;;
69620;Laerm;57654;51.434;5.984;2023-04-24T00:38:02;36.90;35.12;39.11;;
69620;Laerm;57654;51.434;5.984;2023-04-24T00:38:12;35.74;33.71;39.39;;
69620;Laerm;57654;51.434;5.984;2023-04-24T00:38:23;35.37;33.67;38.81;;
69620;Laerm;57654;51.434;5.984;2023-04-24T00:38:33;36.17;34.35;42.16;;
69620;Laerm;57654;51.434;5.984;2023-04-24T00:38:43;34.76;32.26;38.10;;
69620;Laerm;57654;51.434;5.984;2023-04-24T00:38:54;34.62;33.20;37.12;;
69620;Laerm;57654;51.434;5.984;2023-04-24T00:39:04;35.75;33.83;39.58;;
69620;Laerm;57654;51.434;5.984;2023-04-24T00:39:14;38.40;35.15;40.53;;
69620;Laerm;57654;51.434;5.984;2023-04-24T00:39:25;36.98;34.20;39.49;;
69620;Laerm;57654;51.434;5.984;2023-04-24T00:39:35;35.52;33.89;38.44;;
69620;Laerm;57654;51.434;5.984;2023-04-24T00:39:46;35.68;33.94;39.07;;
69620;Laerm;57654;51.434;5.984;2023-04-24T00:39:56;37.34;34.34;41.26;;
69620;Laerm;57654;51.434;5.984;2023-04-24T00:40:06;36.59;35.02;41.81;;
69620;Laerm;57654;51.434;5.984;2023-04-24T00:40:17;36.46;34.90;44.02;;
69620;Laerm;57654;51.434;5.984;2023-04-24T00:40:27;37.53;35.04;39.70;;
69620;Laerm;57654;51.434;5.984;2023-04-24T00:40:38;37.21;35.90;39.44;;
69620;Laerm;57654;51.434;5.984;2023-04-24T00:40:48;37.36;35.99;40.92;;
69620;Laerm;57654;51.434;5.984;2023-04-24T00:40:59;36.57;34.90;39.40;;
69620;Laerm;57654;51.434;5.984;2023-04-24T00:41:10;38.42;36.06;40.52;;
69620;Laerm;57654;51.434;5.984;2023-04-24T00:41:20;37.93;34.97;40.36;;
69620;Laerm;57654;51.434;5.984;2023-04-24T00:41:31;35.44;33.22;41.65;;
69620;Laerm;57654;51.434;5.984;2023-04-24T00:41:41;34.65;32.50;39.27;;
69620;Laerm;57654;51.434;5.984;2023-04-24T00:41:52;34.57;32.57;37.79;;
69620;Laerm;57654;51.434;5.984;2023-04-24T00:42:03;33.84;32.03;39.73;;
69620;Laerm;57654;51.434;5.984;2023-04-24T00:42:15;33.49;31.66;36.91;;
69620;Laerm;57654;51.434;5.984;2023-04-24T00:42:25;34.31;32.38;37.62;;
69620;Laerm;57654;51.434;5.984;2023-04-24T00:42:36;33.57;31.83;37.46;;
69620;Laerm;57654;51.434;5.984;2023-04-24T00:42:46;32.81;31.07;36.06;;
69620;Laerm;57654;51.434;5.984;2023-04-24T00:42:56;33.03;30.98;39.63;;
69620;Laerm;57654;51.434;5.984;2023-04-24T00:43:07;33.38;31.80;36.57;;
69620;Laerm;57654;51.434;5.984;2023-04-24T00:43:17;33.51;31.54;37.69;;
69620;Laerm;57654;51.434;5.984;2023-04-24T00:43:27;34.31;32.27;37.73;;
69620;Laerm;57654;51.434;5.984;2023-04-24T00:43:37;35.45;32.85;38.28;;
69620;Laerm;57654;51.434;5.984;2023-04-24T00:43:48;35.71;33.30;40.38;;
69620;Laerm;57654;51.434;5.984;2023-04-24T00:43:58;34.49;32.61;41.43;;
69620;Laerm;57654;51.434;5.984;2023-04-24T00:44:09;35.11;33.43;37.96;;
69620;Laerm;57654;51.434;5.984;2023-04-24T00:44:19;35.02;33.05;38.89;;
69620;Laerm;57654;51.434;5.984;2023-04-24T00:44:29;34.63;33.23;37.41;;
69620;Laerm;57654;51.434;5.984;2023-04-24T00:44:40;34.72;32.53;38.66;;
69620;Laerm;57654;51.434;5.984;2023-04-24T00:44:50;34.17;32.26;37.68;;
69620;Laerm;57654;51.434;5.984;2023-04-24T00:45:01;33.69;32.23;37.79;;
69620;Laerm;57654;51.434;5.984;2023-04-24T00:45:13;34.41;31.88;37.31;;
69620;Laerm;57654;51.434;5.984;2023-04-24T00:45:23;34.97;32.90;42.03;;
69620;Laerm;57654;51.434;5.984;2023-04-24T00:45:33;34.59;32.69;38.55;;
69620;Laerm;57654;51.434;5.984;2023-04-24T00:45:43;35.98;33.85;38.15;;
69620;Laerm;57654;51.434;5.984;2023-04-24T00:45:54;34.85;32.94;38.26;;
69620;Laerm;57654;51.434;5.984;2023-04-24T00:46:04;34.41;32.53;37.88;;
69620;Laerm;57654;51.434;5.984;2023-04-24T00:46:15;33.94;32.11;39.79;;
69620;Laerm;57654;51.434;5.984;2023-04-24T00:46:26;34.25;32.78;37.41;;
69620;Laerm;57654;51.434;5.984;2023-04-24T00:46:37;34.49;32.27;39.47;;
69620;Laerm;57654;51.434;5.984;2023-04-24T00:46:48;34.58;32.90;38.44;;
69620;Laerm;57654;51.434;5.984;2023-04-24T00:47:01;33.74;31.70;37.56;;
69620;Laerm;57654;51.434;5.984;2023-04-24T00:47:12;33.20;31.30;38.66;;
69620;Laerm;57654;51.434;5.984;2023-04-24T00:47:22;33.49;31.79;37.41;;
69620;Laerm;57654;51.434;5.984;2023-04-24T00:47:33;33.13;30.95;39.14;;
69620;Laerm;57654;51.434;5.984;2023-04-24T00:47:43;32.84;31.22;37.44;;
69620;Laerm;57654;51.434;5.984;2023-04-24T00:47:55;33.39;31.42;37.22;;
69620;Laerm;57654;51.434;5.984;2023-04-24T00:48:05;33.57;31.55;38.70;;
69620;Laerm;57654;51.434;5.984;2023-04-24T00:48:16;35.17;33.41;37.92;;
69620;Laerm;57654;51.434;5.984;2023-04-24T00:48:26;35.43;33.24;39.78;;
69620;Laerm;57654;51.434;5.984;2023-04-24T00:48:38;35.87;33.33;38.44;;
69620;Laerm;57654;51.434;5.984;2023-04-24T00:48:49;36.72;34.54;39.17;;
69620;Laerm;57654;51.434;5.984;2023-04-24T00:49:00;35.62;33.53;38.24;;
69620;Laerm;57654;51.434;5.984;2023-04-24T00:49:10;36.25;33.58;38.88;;
69620;Laerm;57654;51.434;5.984;2023-04-24T00:49:22;34.45;32.27;37.87;;
69620;Laerm;57654;51.434;5.984;2023-04-24T00:49:32;33.93;32.12;38.06;;
69620;Laerm;57654;51.434;5.984;2023-04-24T00:49:42;34.38;32.55;38.47;;
69620;Laerm;57654;51.434;5.984;2023-04-24T00:49:52;34.14;32.64;37.01;;
69620;Laerm;57654;51.434;5.984;2023-04-24T00:50:03;33.56;31.46;38.51;;
69620;Laerm;57654;51.434;5.984;2023-04-24T00:50:14;33.06;31.29;36.91;;
69620;Laerm;57654;51.434;5.984;2023-04-24T00:50:24;33.27;31.32;40.79;;
69620;Laerm;57654;51.434;5.984;2023-04-24T00:50:35;33.44;31.62;36.11;;
69620;Laerm;57654;51.434;5.984;2023-04-24T00:50:46;34.02;32.07;38.43;;
69620;Laerm;57654;51.434;5.984;2023-04-24T00:50:56;33.92;31.77;42.82;;
69620;Laerm;57654;51.434;5.984;2023-04-24T00:51:08;34.21;32.47;37.82;;
69620;Laerm;57654;51.434;5.984;2023-04-24T00:51:18;36.00;34.23;41.77;;
69620;Laerm;57654;51.434;5.984;2023-04-24T00:51:30;37.73;34.87;41.22;;
69620;Laerm;57654;51.434;5.984;2023-04-24T00:51:40;41.35;38.83;43.15;;
69620;Laerm;57654;51.434;5.984;2023-04-24T00:51:55;38.01;35.61;42.40;;
69620;Laerm;57654;51.434;5.984;2023-04-24T00:52:06;39.37;35.68;43.10;;
69620;Laerm;57654;51.434;5.984;2023-04-24T00:52:18;42.49;39.92;44.04;;
69620;Laerm;57654;51.434;5.984;2023-04-24T00:52:28;40.22;37.89;43.73;;
69620;Laerm;57654;51.434;5.984;2023-04-24T00:52:41;39.11;36.23;42.88;;
69620;Laerm;57654;51.434;5.984;2023-04-24T00:52:51;40.53;38.17;42.34;;
69620;Laerm;57654;51.434;5.984;2023-04-24T00:53:01;41.27;39.69;42.85;;
69620;Laerm;57654;51.434;5.984;2023-04-24T00:53:12;39.94;37.82;42.23;;
69620;Laerm;57654;51.434;5.984;2023-04-24T00:53:22;38.54;36.76;40.79;;
69620;Laerm;57654;51.434;5.984;2023-04-24T00:53:32;38.24;36.37;40.24;;
69620;Laerm;57654;51.434;5.984;2023-04-24T00:53:43;39.13;37.35;41.29;;
69620;Laerm;57654;51.434;5.984;2023-04-24T00:53:53;37.60;35.93;39.61;;
69620;Laerm;57654;51.434;5.984;2023-04-24T00:54:03;38.64;36.71;40.68;;
69620;Laerm;57654;51.434;5.984;2023-04-24T00:54:13;38.44;36.36;40.38;;
69620;Laerm;57654;51.434;5.984;2023-04-24T00:54:23;38.43;36.22;41.53;;
69620;Laerm;57654;51.434;5.984;2023-04-24T00:54:34;39.75;38.22;42.50;;
69620;Laerm;57654;51.434;5.984;2023-04-24T00:54:44;40.99;38.70;42.46;;
69620;Laerm;57654;51.434;5.984;2023-04-24T00:54:55;41.25;39.63;43.55;;
69620;Laerm;57654;51.434;5.984;2023-04-24T00:55:05;39.29;37.14;41.26;;
69620;Laerm;57654;51.434;5.984;2023-04-24T00:55:16;36.64;33.74;42.22;;
69620;Laerm;57654;51.434;5.984;2023-04-24T00:55:26;34.21;31.99;36.84;;
69620;Laerm;57654;51.434;5.984;2023-04-24T00:55:36;34.03;32.49;37.92;;
69620;Laerm;57654;51.434;5.984;2023-04-24T00:55:47;34.11;32.27;38.57;;
69620;Laerm;57654;51.434;5.984;2023-04-24T00:55:57;36.19;33.80;38.16;;
69620;Laerm;57654;51.434;5.984;2023-04-24T00:56:08;35.90;34.47;38.18;;
69620;Laerm;57654;51.434;5.984;2023-04-24T00:56:19;35.75;34.13;38.66;;
69620;Laerm;57654;51.434;5.984;2023-04-24T00:56:29;35.41;33.34;38.95;;
69620;Laerm;57654;51.434;5.984;2023-04-24T00:56:40;35.69;33.76;39.58;;
69620;Laerm;57654;51.434;5.984;2023-04-24T00:56:51;35.84;34.07;39.58;;
69620;Laerm;57654;51.434;5.984;2023-04-24T00:57:02;34.76;32.66;43.13;;
69620;Laerm;57654;51.434;5.984;2023-04-24T00:57:13;34.01;32.18;39.14;;
69620;Laerm;57654;51.434;5.984;2023-04-24T00:57:25;34.89;33.27;38.09;;
69620;Laerm;57654;51.434;5.984;2023-04-24T00:57:36;34.74;32.82;39.09;;
69620;Laerm;57654;51.434;5.984;2023-04-24T00:57:47;35.96;34.15;38.69;;
69620;Laerm;57654;51.434;5.984;2023-04-24T00:57:58;37.82;35.77;40.11;;
69620;Laerm;57654;51.434;5.984;2023-04-24T00:58:09;38.15;35.95;40.15;;
69620;Laerm;57654;51.434;5.984;2023-04-24T00:58:19;38.00;35.81;40.31;;
69620;Laerm;57654;51.434;5.984;2023-04-24T00:58:30;37.50;35.69;41.71;;
69620;Laerm;57654;51.434;5.984;2023-04-24T00:58:41;37.62;35.88;39.91;;
69620;Laerm;57654;51.434;5.984;2023-04-24T00:58:52;37.91;36.04;39.83;;
69620;Laerm;57654;51.434;5.984;2023-04-24T00:59:02;39.68;37.11;45.09;;
69620;Laerm;57654;51.434;5.984;2023-04-24T00:59:13;39.96;37.77;42.48;;
69620;Laerm;57654;51.434;5.984;2023-04-24T00:59:24;39.04;37.00;41.78;;